sensor_id;sensor_type;location;lat;lon;timestamp;temperature;humidity
69546;SHT31;56766;52.260;20.746;2023-08-01T00:01:02;18.17;74.94
69546;SHT31;56766;52.260;20.746;2023-08-01T00:03:29;18.17;75.04
69546;SHT31;56766;52.260;20.746;2023-08-01T00:05:55;18.16;75.00
69546;SHT31;56766;52.260;20.746;2023-08-01T00:08:22;18.17;75.03
69546;SHT31;56766;52.260;20.746;2023-08-01T00:10:49;18.16;75.10
69546;SHT31;56766;52.260;20.746;2023-08-01T00:13:15;18.15;75.20
69546;SHT31;56766;52.260;20.746;2023-08-01T00:15:43;18.14;75.25
69546;SHT31;56766;52.260;20.746;2023-08-01T00:18:10;18.15;75.27
69546;SHT31;56766;52.260;20.746;2023-08-01T00:20:37;18.15;75.15
69546;SHT31;56766;52.260;20.746;2023-08-01T00:23:06;18.18;75.12
69546;SHT31;56766;52.260;20.746;2023-08-01T00:25:33;18.20;75.08
69546;SHT31;56766;52.260;20.746;2023-08-01T00:27:59;18.22;75.08
69546;SHT31;56766;52.260;20.746;2023-08-01T00:30:26;18.25;75.06
69546;SHT31;56766;52.260;20.746;2023-08-01T00:32:53;18.26;74.99
69546;SHT31;56766;52.260;20.746;2023-08-01T00:35:19;18.27;74.92
69546;SHT31;56766;52.260;20.746;2023-08-01T00:37:47;18.28;74.91
69546;SHT31;56766;52.260;20.746;2023-08-01T00:40:14;18.28;74.97
69546;SHT31;56766;52.260;20.746;2023-08-01T00:42:42;18.28;74.95
69546;SHT31;56766;52.260;20.746;2023-08-01T00:45:10;18.30;74.99
69546;SHT31;56766;52.260;20.746;2023-08-01T00:47:38;18.30;74.94
69546;SHT31;56766;52.260;20.746;2023-08-01T00:50:06;18.31;74.97
69546;SHT31;56766;52.260;20.746;2023-08-01T00:52:33;18.32;74.93
69546;SHT31;56766;52.260;20.746;2023-08-01T00:55:01;18.33;74.89
69546;SHT31;56766;52.260;20.746;2023-08-01T00:57:28;18.33;74.85
69546;SHT31;56766;52.260;20.746;2023-08-01T00:59:56;18.34;74.77
69546;SHT31;56766;52.260;20.746;2023-08-01T01:02:23;18.35;74.79
69546;SHT31;56766;52.260;20.746;2023-08-01T01:04:50;18.35;74.75
69546;SHT31;56766;52.260;20.746;2023-08-01T01:07:17;18.36;74.70
69546;SHT31;56766;52.260;20.746;2023-08-01T01:09:44;18.36;74.73
69546;SHT31;56766;52.260;20.746;2023-08-01T01:12:11;18.36;74.73
69546;SHT31;56766;52.260;20.746;2023-08-01T01:14:37;18.35;74.73
69546;SHT31;56766;52.260;20.746;2023-08-01T01:17:04;18.35;74.79
69546;SHT31;56766;52.260;20.746;2023-08-01T01:19:31;18.34;74.75
69546;SHT31;56766;52.260;20.746;2023-08-01T01:21:58;18.34;74.71
69546;SHT31;56766;52.260;20.746;2023-08-01T01:24:27;18.33;74.74
69546;SHT31;56766;52.260;20.746;2023-08-01T01:26:56;18.31;74.78
69546;SHT31;56766;52.260;20.746;2023-08-01T01:29:27;18.31;74.79
69546;SHT31;56766;52.260;20.746;2023-08-01T01:31:55;18.30;74.73
69546;SHT31;56766;52.260;20.746;2023-08-01T01:34:24;18.29;74.75
69546;SHT31;56766;52.260;20.746;2023-08-01T01:36:50;18.28;74.76
69546;SHT31;56766;52.260;20.746;2023-08-01T01:39:17;18.29;74.81
69546;SHT31;56766;52.260;20.746;2023-08-01T01:41:44;18.28;74.80
69546;SHT31;56766;52.260;20.746;2023-08-01T01:44:11;18.28;74.81
69546;SHT31;56766;52.260;20.746;2023-08-01T01:46:37;18.26;74.78
69546;SHT31;56766;52.260;20.746;2023-08-01T01:49:04;18.24;74.68
69546;SHT31;56766;52.260;20.746;2023-08-01T01:51:32;18.22;74.70
69546;SHT31;56766;52.260;20.746;2023-08-01T01:53:58;18.23;74.73
69546;SHT31;56766;52.260;20.746;2023-08-01T01:56:25;18.21;74.76
69546;SHT31;56766;52.260;20.746;2023-08-01T01:58:51;18.21;74.85
69546;SHT31;56766;52.260;20.746;2023-08-01T02:01:18;18.19;74.88
69546;SHT31;56766;52.260;20.746;2023-08-01T02:03:45;18.16;74.88
69546;SHT31;56766;52.260;20.746;2023-08-01T02:06:11;18.13;74.90
69546;SHT31;56766;52.260;20.746;2023-08-01T02:08:40;18.10;74.92
69546;SHT31;56766;52.260;20.746;2023-08-01T02:11:07;18.06;74.95
69546;SHT31;56766;52.260;20.746;2023-08-01T02:13:33;18.05;74.91
69546;SHT31;56766;52.260;20.746;2023-08-01T02:16:00;18.01;74.99
69546;SHT31;56766;52.260;20.746;2023-08-01T02:18:27;17.98;75.04
69546;SHT31;56766;52.260;20.746;2023-08-01T02:20:54;17.94;75.15
69546;SHT31;56766;52.260;20.746;2023-08-01T02:23:20;17.90;75.22
69546;SHT31;56766;52.260;20.746;2023-08-01T02:25:47;17.87;75.27
69546;SHT31;56766;52.260;20.746;2023-08-01T02:28:13;17.85;75.32
69546;SHT31;56766;52.260;20.746;2023-08-01T02:30:40;17.83;75.36
69546;SHT31;56766;52.260;20.746;2023-08-01T02:33:07;17.81;75.41
69546;SHT31;56766;52.260;20.746;2023-08-01T02:35:33;17.78;75.47
69546;SHT31;56766;52.260;20.746;2023-08-01T02:38:00;17.78;75.49
69546;SHT31;56766;52.260;20.746;2023-08-01T02:40:29;17.78;75.54
69546;SHT31;56766;52.260;20.746;2023-08-01T02:42:55;17.80;75.42
69546;SHT31;56766;52.260;20.746;2023-08-01T02:45:22;17.83;75.41
69546;SHT31;56766;52.260;20.746;2023-08-01T02:47:49;17.85;75.37
69546;SHT31;56766;52.260;20.746;2023-08-01T02:50:15;17.86;75.25
69546;SHT31;56766;52.260;20.746;2023-08-01T02:52:42;17.90;75.17
69546;SHT31;56766;52.260;20.746;2023-08-01T02:55:09;17.93;75.08
69546;SHT31;56766;52.260;20.746;2023-08-01T02:57:36;17.97;75.04
69546;SHT31;56766;52.260;20.746;2023-08-01T03:00:03;17.99;74.94
69546;SHT31;56766;52.260;20.746;2023-08-01T03:02:32;18.02;74.85
69546;SHT31;56766;52.260;20.746;2023-08-01T03:04:59;18.06;74.72
69546;SHT31;56766;52.260;20.746;2023-08-01T03:07:26;18.09;74.67
69546;SHT31;56766;52.260;20.746;2023-08-01T03:09:55;18.13;74.58
69546;SHT31;56766;52.260;20.746;2023-08-01T03:12:22;18.15;74.43
69546;SHT31;56766;52.260;20.746;2023-08-01T03:14:49;18.17;74.33
69546;SHT31;56766;52.260;20.746;2023-08-01T03:17:16;18.20;74.29
69546;SHT31;56766;52.260;20.746;2023-08-01T03:19:43;18.24;74.26
69546;SHT31;56766;52.260;20.746;2023-08-01T03:22:10;18.26;74.22
69546;SHT31;56766;52.260;20.746;2023-08-01T03:24:37;18.29;74.00
69546;SHT31;56766;52.260;20.746;2023-08-01T03:27:04;18.32;73.98
69546;SHT31;56766;52.260;20.746;2023-08-01T03:29:30;18.35;73.92
69546;SHT31;56766;52.260;20.746;2023-08-01T03:31:57;18.39;73.77
69546;SHT31;56766;52.260;20.746;2023-08-01T03:34:24;18.44;73.63
69546;SHT31;56766;52.260;20.746;2023-08-01T03:36:53;18.49;73.36
69546;SHT31;56766;52.260;20.746;2023-08-01T03:39:19;18.55;73.13
69546;SHT31;56766;52.260;20.746;2023-08-01T03:41:46;18.62;73.05
69546;SHT31;56766;52.260;20.746;2023-08-01T03:44:13;18.69;73.10
69546;SHT31;56766;52.260;20.746;2023-08-01T03:46:41;18.74;73.00
69546;SHT31;56766;52.260;20.746;2023-08-01T03:49:08;18.78;72.88
69546;SHT31;56766;52.260;20.746;2023-08-01T03:51:35;18.84;72.54
69546;SHT31;56766;52.260;20.746;2023-08-01T03:54:02;18.89;72.47
69546;SHT31;56766;52.260;20.746;2023-08-01T03:56:28;18.91;72.45
69546;SHT31;56766;52.260;20.746;2023-08-01T03:58:55;18.93;72.32
69546;SHT31;56766;52.260;20.746;2023-08-01T04:01:22;18.96;72.14
69546;SHT31;56766;52.260;20.746;2023-08-01T04:03:49;18.98;72.19
69546;SHT31;56766;52.260;20.746;2023-08-01T04:06:15;19.04;72.11
69546;SHT31;56766;52.260;20.746;2023-08-01T04:08:42;19.13;72.01
69546;SHT31;56766;52.260;20.746;2023-08-01T04:11:09;19.23;71.90
69546;SHT31;56766;52.260;20.746;2023-08-01T04:13:37;19.35;71.73
69546;SHT31;56766;52.260;20.746;2023-08-01T04:16:04;19.46;71.54
69546;SHT31;56766;52.260;20.746;2023-08-01T04:18:31;19.51;71.33
69546;SHT31;56766;52.260;20.746;2023-08-01T04:20:57;19.53;71.14
69546;SHT31;56766;52.260;20.746;2023-08-01T04:23:24;19.55;70.95
69546;SHT31;56766;52.260;20.746;2023-08-01T04:25:51;19.57;70.83
69546;SHT31;56766;52.260;20.746;2023-08-01T04:28:17;19.59;70.63
69546;SHT31;56766;52.260;20.746;2023-08-01T04:30:49;19.62;70.57
69546;SHT31;56766;52.260;20.746;2023-08-01T04:33:16;19.68;70.43
69546;SHT31;56766;52.260;20.746;2023-08-01T04:35:43;19.77;70.26
69546;SHT31;56766;52.260;20.746;2023-08-01T04:38:11;19.86;69.92
69546;SHT31;56766;52.260;20.746;2023-08-01T04:40:37;19.97;69.53
69546;SHT31;56766;52.260;20.746;2023-08-01T04:43:04;20.13;69.30
69546;SHT31;56766;52.260;20.746;2023-08-01T04:45:31;20.40;68.94
69546;SHT31;56766;52.260;20.746;2023-08-01T04:48:00;20.62;68.25
69546;SHT31;56766;52.260;20.746;2023-08-01T04:50:26;20.78;68.04
69546;SHT31;56766;52.260;20.746;2023-08-01T04:52:54;20.94;67.64
69546;SHT31;56766;52.260;20.746;2023-08-01T04:55:20;21.21;67.17
69546;SHT31;56766;52.260;20.746;2023-08-01T04:57:49;21.45;66.45
69546;SHT31;56766;52.260;20.746;2023-08-01T05:00:17;21.67;66.07
69546;SHT31;56766;52.260;20.746;2023-08-01T05:02:47;21.88;65.36
69546;SHT31;56766;52.260;20.746;2023-08-01T05:05:13;22.02;65.05
69546;SHT31;56766;52.260;20.746;2023-08-01T05:07:42;22.09;64.82
69546;SHT31;56766;52.260;20.746;2023-08-01T05:10:10;22.10;64.56
69546;SHT31;56766;52.260;20.746;2023-08-01T05:12:40;22.07;64.23
69546;SHT31;56766;52.260;20.746;2023-08-01T05:15:07;22.01;64.27
69546;SHT31;56766;52.260;20.746;2023-08-01T05:17:36;21.96;64.40
69546;SHT31;56766;52.260;20.746;2023-08-01T05:20:03;21.92;64.38
69546;SHT31;56766;52.260;20.746;2023-08-01T05:22:30;21.88;64.26
69546;SHT31;56766;52.260;20.746;2023-08-01T05:24:57;21.85;64.17
69546;SHT31;56766;52.260;20.746;2023-08-01T05:27:24;21.82;64.12
69546;SHT31;56766;52.260;20.746;2023-08-01T05:29:50;21.84;64.09
69546;SHT31;56766;52.260;20.746;2023-08-01T05:32:17;21.90;63.83
69546;SHT31;56766;52.260;20.746;2023-08-01T05:34:44;21.99;63.71
69546;SHT31;56766;52.260;20.746;2023-08-01T05:37:11;22.08;63.42
69546;SHT31;56766;52.260;20.746;2023-08-01T05:39:39;22.20;62.96
69546;SHT31;56766;52.260;20.746;2023-08-01T05:42:07;22.34;62.92
69546;SHT31;56766;52.260;20.746;2023-08-01T05:44:37;22.52;62.54
69546;SHT31;56766;52.260;20.746;2023-08-01T05:47:03;22.68;62.12
69546;SHT31;56766;52.260;20.746;2023-08-01T05:49:30;22.80;61.94
69546;SHT31;56766;52.260;20.746;2023-08-01T05:51:57;22.85;61.22
69546;SHT31;56766;52.260;20.746;2023-08-01T05:54:23;22.89;61.46
69546;SHT31;56766;52.260;20.746;2023-08-01T05:56:50;22.91;61.01
69546;SHT31;56766;52.260;20.746;2023-08-01T05:59:17;22.87;60.98
69546;SHT31;56766;52.260;20.746;2023-08-01T06:01:44;22.86;61.27
69546;SHT31;56766;52.260;20.746;2023-08-01T06:04:11;22.88;61.11
69546;SHT31;56766;52.260;20.746;2023-08-01T06:06:38;22.92;60.94
69546;SHT31;56766;52.260;20.746;2023-08-01T06:09:04;23.03;60.86
69546;SHT31;56766;52.260;20.746;2023-08-01T06:11:31;23.16;60.60
69546;SHT31;56766;52.260;20.746;2023-08-01T06:14:00;23.27;60.49
69546;SHT31;56766;52.260;20.746;2023-08-01T06:16:27;23.35;60.23
69546;SHT31;56766;52.260;20.746;2023-08-01T06:18:53;23.36;60.26
69546;SHT31;56766;52.260;20.746;2023-08-01T06:21:20;23.36;60.04
69546;SHT31;56766;52.260;20.746;2023-08-01T06:23:47;23.36;59.72
69546;SHT31;56766;52.260;20.746;2023-08-01T06:26:13;23.37;59.64
69546;SHT31;56766;52.260;20.746;2023-08-01T06:28:42;23.45;60.04
69546;SHT31;56766;52.260;20.746;2023-08-01T06:31:08;23.58;59.94
69546;SHT31;56766;52.260;20.746;2023-08-01T06:33:35;23.66;59.40
69546;SHT31;56766;52.260;20.746;2023-08-01T06:36:02;23.70;59.32
69546;SHT31;56766;52.260;20.746;2023-08-01T06:38:29;23.78;59.42
69546;SHT31;56766;52.260;20.746;2023-08-01T06:40:56;23.91;59.43
69546;SHT31;56766;52.260;20.746;2023-08-01T06:43:22;24.05;58.92
69546;SHT31;56766;52.260;20.746;2023-08-01T06:45:51;24.17;58.72
69546;SHT31;56766;52.260;20.746;2023-08-01T06:48:17;24.34;58.57
69546;SHT31;56766;52.260;20.746;2023-08-01T06:50:44;24.54;58.35
69546;SHT31;56766;52.260;20.746;2023-08-01T06:53:11;24.74;57.97
69546;SHT31;56766;52.260;20.746;2023-08-01T06:55:38;24.93;57.52
69546;SHT31;56766;52.260;20.746;2023-08-01T06:58:06;25.15;57.27
69546;SHT31;56766;52.260;20.746;2023-08-01T07:00:33;25.31;56.24
69546;SHT31;56766;52.260;20.746;2023-08-01T07:02:59;25.47;56.33
69546;SHT31;56766;52.260;20.746;2023-08-01T07:05:26;25.58;55.62
69546;SHT31;56766;52.260;20.746;2023-08-01T07:07:53;25.66;55.59
69546;SHT31;56766;52.260;20.746;2023-08-01T07:10:19;25.74;55.49
69546;SHT31;56766;52.260;20.746;2023-08-01T07:12:46;25.86;55.16
69546;SHT31;56766;52.260;20.746;2023-08-01T07:15:13;26.00;54.80
69546;SHT31;56766;52.260;20.746;2023-08-01T07:17:40;26.17;54.45
69546;SHT31;56766;52.260;20.746;2023-08-01T07:20:07;26.41;54.05
69546;SHT31;56766;52.260;20.746;2023-08-01T07:22:34;26.65;53.32
69546;SHT31;56766;52.260;20.746;2023-08-01T07:25:01;26.88;53.13
69546;SHT31;56766;52.260;20.746;2023-08-01T07:27:28;27.07;53.01
69546;SHT31;56766;52.260;20.746;2023-08-01T07:29:55;27.22;52.25
69546;SHT31;56766;52.260;20.746;2023-08-01T07:32:21;27.30;52.18
69546;SHT31;56766;52.260;20.746;2023-08-01T07:34:48;27.39;52.01
69546;SHT31;56766;52.260;20.746;2023-08-01T07:37:15;27.38;51.01
69546;SHT31;56766;52.260;20.746;2023-08-01T07:39:41;27.31;51.42
69546;SHT31;56766;52.260;20.746;2023-08-01T07:42:08;27.26;51.02
69546;SHT31;56766;52.260;20.746;2023-08-01T07:44:35;27.15;51.19
69546;SHT31;56766;52.260;20.746;2023-08-01T07:47:02;27.08;51.07
69546;SHT31;56766;52.260;20.746;2023-08-01T07:49:29;27.02;51.03
69546;SHT31;56766;52.260;20.746;2023-08-01T07:51:55;27.00;51.37
69546;SHT31;56766;52.260;20.746;2023-08-01T07:54:24;27.01;51.55
69546;SHT31;56766;52.260;20.746;2023-08-01T07:56:50;26.92;51.04
69546;SHT31;56766;52.260;20.746;2023-08-01T07:59:21;26.68;50.66
69546;SHT31;56766;52.260;20.746;2023-08-01T08:01:48;26.50;51.13
69546;SHT31;56766;52.260;20.746;2023-08-01T08:04:15;26.46;51.29
69546;SHT31;56766;52.260;20.746;2023-08-01T08:06:46;26.50;51.74
69546;SHT31;56766;52.260;20.746;2023-08-01T08:09:14;26.57;51.45
69546;SHT31;56766;52.260;20.746;2023-08-01T08:11:42;26.55;51.23
69546;SHT31;56766;52.260;20.746;2023-08-01T08:14:09;26.55;51.64
69546;SHT31;56766;52.260;20.746;2023-08-01T08:16:41;26.57;51.43
69546;SHT31;56766;52.260;20.746;2023-08-01T08:19:08;26.53;51.35
69546;SHT31;56766;52.260;20.746;2023-08-01T08:21:37;26.51;51.43
69546;SHT31;56766;52.260;20.746;2023-08-01T08:24:04;26.47;51.56
69546;SHT31;56766;52.260;20.746;2023-08-01T08:26:32;26.36;51.68
69546;SHT31;56766;52.260;20.746;2023-08-01T08:29:04;26.28;52.04
69546;SHT31;56766;52.260;20.746;2023-08-01T08:31:33;26.21;52.19
69546;SHT31;56766;52.260;20.746;2023-08-01T08:34:00;26.12;52.47
69546;SHT31;56766;52.260;20.746;2023-08-01T08:36:27;26.03;52.63
69546;SHT31;56766;52.260;20.746;2023-08-01T08:38:57;25.92;52.93
69546;SHT31;56766;52.260;20.746;2023-08-01T08:41:27;25.82;53.15
69546;SHT31;56766;52.260;20.746;2023-08-01T08:43:56;25.73;53.47
69546;SHT31;56766;52.260;20.746;2023-08-01T08:46:29;25.69;53.68
69546;SHT31;56766;52.260;20.746;2023-08-01T08:48:57;25.73;53.83
69546;SHT31;56766;52.260;20.746;2023-08-01T08:51:28;25.82;53.79
69546;SHT31;56766;52.260;20.746;2023-08-01T08:53:56;25.98;53.82
69546;SHT31;56766;52.260;20.746;2023-08-01T08:56:23;26.16;53.66
69546;SHT31;56766;52.260;20.746;2023-08-01T08:58:51;26.34;53.39
69546;SHT31;56766;52.260;20.746;2023-08-01T09:01:19;26.62;53.51
69546;SHT31;56766;52.260;20.746;2023-08-01T09:03:48;26.90;52.94
69546;SHT31;56766;52.260;20.746;2023-08-01T09:06:17;27.15;52.41
69546;SHT31;56766;52.260;20.746;2023-08-01T09:09:01;27.39;52.14
69546;SHT31;56766;52.260;20.746;2023-08-01T09:11:51;27.65;51.88
69546;SHT31;56766;52.260;20.746;2023-08-01T09:14:19;27.87;51.08
69546;SHT31;56766;52.260;20.746;2023-08-01T09:16:46;27.99;51.09
69546;SHT31;56766;52.260;20.746;2023-08-01T09:19:18;28.19;50.89
69546;SHT31;56766;52.260;20.746;2023-08-01T09:21:46;28.31;50.71
69546;SHT31;56766;52.260;20.746;2023-08-01T09:24:16;28.37;50.32
69546;SHT31;56766;52.260;20.746;2023-08-01T09:26:47;28.37;49.93
69546;SHT31;56766;52.260;20.746;2023-08-01T09:29:20;28.42;49.75
69546;SHT31;56766;52.260;20.746;2023-08-01T09:31:47;28.50;49.67
69546;SHT31;56766;52.260;20.746;2023-08-01T09:34:21;28.61;49.59
69546;SHT31;56766;52.260;20.746;2023-08-01T09:36:50;28.79;49.64
69546;SHT31;56766;52.260;20.746;2023-08-01T09:39:20;28.89;48.83
69546;SHT31;56766;52.260;20.746;2023-08-01T09:42:01;28.83;48.18
69546;SHT31;56766;52.260;20.746;2023-08-01T09:44:29;28.75;48.68
69546;SHT31;56766;52.260;20.746;2023-08-01T09:47:02;28.68;48.67
69546;SHT31;56766;52.260;20.746;2023-08-01T09:49:31;28.55;48.51
69546;SHT31;56766;52.260;20.746;2023-08-01T09:51:58;28.41;48.88
69546;SHT31;56766;52.260;20.746;2023-08-01T09:54:27;28.34;49.33
69546;SHT31;56766;52.260;20.746;2023-08-01T09:56:54;28.22;49.64
69546;SHT31;56766;52.260;20.746;2023-08-01T09:59:26;28.03;50.28
69546;SHT31;56766;52.260;20.746;2023-08-01T10:01:54;27.83;50.43
69546;SHT31;56766;52.260;20.746;2023-08-01T10:04:30;27.55;50.70
69546;SHT31;56766;52.260;20.746;2023-08-01T10:07:05;27.29;51.61
69546;SHT31;56766;52.260;20.746;2023-08-01T10:09:34;27.06;52.22
69546;SHT31;56766;52.260;20.746;2023-08-01T10:12:04;26.91;53.08
69546;SHT31;56766;52.260;20.746;2023-08-01T10:14:32;26.73;53.82
69546;SHT31;56766;52.260;20.746;2023-08-01T10:16:59;26.50;53.95
69546;SHT31;56766;52.260;20.746;2023-08-01T10:19:31;26.18;55.23
69546;SHT31;56766;52.260;20.746;2023-08-01T10:22:04;25.96;56.23
69546;SHT31;56766;52.260;20.746;2023-08-01T10:24:34;25.69;56.77
69546;SHT31;56766;52.260;20.746;2023-08-01T10:27:11;25.46;57.55
69546;SHT31;56766;52.260;20.746;2023-08-01T10:29:41;25.30;58.41
69546;SHT31;56766;52.260;20.746;2023-08-01T10:32:09;25.20;59.20
69546;SHT31;56766;52.260;20.746;2023-08-01T10:34:37;25.12;59.84
69546;SHT31;56766;52.260;20.746;2023-08-01T10:37:04;25.07;60.62
69546;SHT31;56766;52.260;20.746;2023-08-01T10:39:31;25.06;61.42
69546;SHT31;56766;52.260;20.746;2023-08-01T10:42:00;25.05;61.92
69546;SHT31;56766;52.260;20.746;2023-08-01T10:44:28;25.07;62.29
69546;SHT31;56766;52.260;20.746;2023-08-01T10:47:03;25.09;62.81
69546;SHT31;56766;52.260;20.746;2023-08-01T10:49:40;25.10;63.04
69546;SHT31;56766;52.260;20.746;2023-08-01T10:52:20;25.07;63.15
69546;SHT31;56766;52.260;20.746;2023-08-01T10:55:01;25.05;63.29
69546;SHT31;56766;52.260;20.746;2023-08-01T10:57:31;25.08;63.81
69546;SHT31;56766;52.260;20.746;2023-08-01T11:00:00;25.10;63.92
69546;SHT31;56766;52.260;20.746;2023-08-01T11:02:30;25.15;64.24
69546;SHT31;56766;52.260;20.746;2023-08-01T11:04:58;25.22;64.59
69546;SHT31;56766;52.260;20.746;2023-08-01T11:07:27;25.40;64.94
69546;SHT31;56766;52.260;20.746;2023-08-01T11:12:41;25.84;64.20
69546;SHT31;56766;52.260;20.746;2023-08-01T11:15:13;26.05;64.10
69546;SHT31;56766;52.260;20.746;2023-08-01T11:17:46;26.20;63.55
69546;SHT31;56766;52.260;20.746;2023-08-01T11:20:14;26.28;62.83
69546;SHT31;56766;52.260;20.746;2023-08-01T11:22:58;26.33;62.15
69546;SHT31;56766;52.260;20.746;2023-08-01T11:25:36;26.32;61.59
69546;SHT31;56766;52.260;20.746;2023-08-01T11:28:15;26.33;61.65
69546;SHT31;56766;52.260;20.746;2023-08-01T11:30:43;26.38;61.53
69546;SHT31;56766;52.260;20.746;2023-08-01T11:33:17;26.46;61.72
69546;SHT31;56766;52.260;20.746;2023-08-01T11:35:53;26.51;61.39
69546;SHT31;56766;52.260;20.746;2023-08-01T11:38:27;26.55;60.88
69546;SHT31;56766;52.260;20.746;2023-08-01T11:41:00;26.65;60.94
69546;SHT31;56766;52.260;20.746;2023-08-01T11:43:40;26.70;60.17
69546;SHT31;56766;52.260;20.746;2023-08-01T11:46:09;26.76;59.96
69546;SHT31;56766;52.260;20.746;2023-08-01T11:48:38;26.82;59.95
69546;SHT31;56766;52.260;20.746;2023-08-01T11:51:05;26.93;59.89
69546;SHT31;56766;52.260;20.746;2023-08-01T11:53:32;26.98;59.48
69546;SHT31;56766;52.260;20.746;2023-08-01T11:56:07;26.93;58.98
69546;SHT31;56766;52.260;20.746;2023-08-01T11:58:36;26.86;58.89
69546;SHT31;56766;52.260;20.746;2023-08-01T12:03:48;26.89;58.64
69546;SHT31;56766;52.260;20.746;2023-08-01T12:06:17;26.90;58.59
69546;SHT31;56766;52.260;20.746;2023-08-01T12:08:50;26.85;58.47
69546;SHT31;56766;52.260;20.746;2023-08-01T12:11:21;26.77;58.11
69546;SHT31;56766;52.260;20.746;2023-08-01T12:14:01;26.57;58.15
69546;SHT31;56766;52.260;20.746;2023-08-01T12:16:43;26.46;58.65
69546;SHT31;56766;52.260;20.746;2023-08-01T12:19:21;26.43;58.65
69546;SHT31;56766;52.260;20.746;2023-08-01T12:21:52;26.49;59.17
69546;SHT31;56766;52.260;20.746;2023-08-01T12:24:19;26.59;58.98
69546;SHT31;56766;52.260;20.746;2023-08-01T12:26:45;26.54;58.40
69546;SHT31;56766;52.260;20.746;2023-08-01T12:29:12;26.48;58.39
69546;SHT31;56766;52.260;20.746;2023-08-01T12:31:39;26.45;58.23
69546;SHT31;56766;52.260;20.746;2023-08-01T12:34:05;26.36;58.13
69546;SHT31;56766;52.260;20.746;2023-08-01T12:36:33;26.29;58.26
69546;SHT31;56766;52.260;20.746;2023-08-01T12:39:00;26.21;58.02
69546;SHT31;56766;52.260;20.746;2023-08-01T12:41:27;26.15;58.48
69546;SHT31;56766;52.260;20.746;2023-08-01T12:43:59;26.14;58.58
69546;SHT31;56766;52.260;20.746;2023-08-01T12:46:28;26.14;58.75
69546;SHT31;56766;52.260;20.746;2023-08-01T12:48:56;26.15;58.26
69546;SHT31;56766;52.260;20.746;2023-08-01T12:51:23;26.15;58.25
69546;SHT31;56766;52.260;20.746;2023-08-01T12:53:50;26.15;58.02
69546;SHT31;56766;52.260;20.746;2023-08-01T12:56:19;26.14;57.96
69546;SHT31;56766;52.260;20.746;2023-08-01T12:58:46;26.21;57.97
69546;SHT31;56766;52.260;20.746;2023-08-01T13:01:13;26.26;57.70
69546;SHT31;56766;52.260;20.746;2023-08-01T13:03:40;26.29;57.33
69546;SHT31;56766;52.260;20.746;2023-08-01T13:06:11;26.32;57.35
69546;SHT31;56766;52.260;20.746;2023-08-01T13:08:39;26.45;57.20
69546;SHT31;56766;52.260;20.746;2023-08-01T13:11:13;26.51;56.72
69546;SHT31;56766;52.260;20.746;2023-08-01T13:13:43;26.62;56.63
69546;SHT31;56766;52.260;20.746;2023-08-01T13:16:12;26.76;56.78
69546;SHT31;56766;52.260;20.746;2023-08-01T13:18:40;26.91;56.64
69546;SHT31;56766;52.260;20.746;2023-08-01T13:21:13;27.04;56.35
69546;SHT31;56766;52.260;20.746;2023-08-01T13:23:42;27.03;55.88
69546;SHT31;56766;52.260;20.746;2023-08-01T13:26:11;26.99;55.84
69546;SHT31;56766;52.260;20.746;2023-08-01T13:28:38;26.84;55.69
69546;SHT31;56766;52.260;20.746;2023-08-01T13:31:05;26.73;56.39
69546;SHT31;56766;52.260;20.746;2023-08-01T13:33:31;26.62;56.70
69546;SHT31;56766;52.260;20.746;2023-08-01T13:36:00;26.44;56.66
69546;SHT31;56766;52.260;20.746;2023-08-01T13:38:29;26.21;57.01
69546;SHT31;56766;52.260;20.746;2023-08-01T13:40:59;26.00;57.49
69546;SHT31;56766;52.260;20.746;2023-08-01T13:43:28;25.76;57.76
69546;SHT31;56766;52.260;20.746;2023-08-01T13:45:55;25.65;58.24
69546;SHT31;56766;52.260;20.746;2023-08-01T13:48:22;25.64;58.39
69546;SHT31;56766;52.260;20.746;2023-08-01T13:50:49;25.63;58.49
69546;SHT31;56766;52.260;20.746;2023-08-01T13:53:16;25.57;58.74
69546;SHT31;56766;52.260;20.746;2023-08-01T13:55:43;25.48;58.95
69546;SHT31;56766;52.260;20.746;2023-08-01T13:58:10;25.31;58.97
69546;SHT31;56766;52.260;20.746;2023-08-01T14:00:37;24.99;59.35
69546;SHT31;56766;52.260;20.746;2023-08-01T14:03:03;24.72;60.31
69546;SHT31;56766;52.260;20.746;2023-08-01T14:05:30;24.36;62.67
69546;SHT31;56766;52.260;20.746;2023-08-01T14:07:57;23.93;64.05
69546;SHT31;56766;52.260;20.746;2023-08-01T14:10:26;23.55;65.40
69546;SHT31;56766;52.260;20.746;2023-08-01T14:12:53;23.18;66.55
69546;SHT31;56766;52.260;20.746;2023-08-01T14:15:20;22.91;67.49
69546;SHT31;56766;52.260;20.746;2023-08-01T14:17:47;22.70;68.23
69546;SHT31;56766;52.260;20.746;2023-08-01T14:20:14;22.57;68.85
69546;SHT31;56766;52.260;20.746;2023-08-01T14:22:42;22.48;69.42
69546;SHT31;56766;52.260;20.746;2023-08-01T14:25:12;22.47;69.96
69546;SHT31;56766;52.260;20.746;2023-08-01T14:27:39;22.52;70.47
69546;SHT31;56766;52.260;20.746;2023-08-01T14:30:06;22.61;70.73
69546;SHT31;56766;52.260;20.746;2023-08-01T14:32:37;22.71;70.99
69546;SHT31;56766;52.260;20.746;2023-08-01T14:35:05;22.83;71.13
69546;SHT31;56766;52.260;20.746;2023-08-01T14:37:34;22.92;71.24
69546;SHT31;56766;52.260;20.746;2023-08-01T14:40:01;23.06;71.24
69546;SHT31;56766;52.260;20.746;2023-08-01T14:42:27;23.18;71.06
69546;SHT31;56766;52.260;20.746;2023-08-01T14:44:54;23.27;70.99
69546;SHT31;56766;52.260;20.746;2023-08-01T14:47:21;23.28;70.52
69546;SHT31;56766;52.260;20.746;2023-08-01T14:49:48;23.26;70.43
69546;SHT31;56766;52.260;20.746;2023-08-01T14:52:15;23.25;70.30
69546;SHT31;56766;52.260;20.746;2023-08-01T14:54:42;23.27;70.23
69546;SHT31;56766;52.260;20.746;2023-08-01T14:57:08;23.32;70.13
69546;SHT31;56766;52.260;20.746;2023-08-01T14:59:35;23.38;69.96
69546;SHT31;56766;52.260;20.746;2023-08-01T15:02:02;23.48;69.78
69546;SHT31;56766;52.260;20.746;2023-08-01T15:04:28;23.58;69.55
69546;SHT31;56766;52.260;20.746;2023-08-01T15:06:55;23.61;69.26
69546;SHT31;56766;52.260;20.746;2023-08-01T15:09:22;23.60;69.36
69546;SHT31;56766;52.260;20.746;2023-08-01T15:11:48;23.57;69.21
69546;SHT31;56766;52.260;20.746;2023-08-01T15:14:15;23.53;68.82
69546;SHT31;56766;52.260;20.746;2023-08-01T15:16:42;23.50;68.71
69546;SHT31;56766;52.260;20.746;2023-08-01T15:19:08;23.52;68.74
69546;SHT31;56766;52.260;20.746;2023-08-01T15:21:35;23.56;68.54
69546;SHT31;56766;52.260;20.746;2023-08-01T15:24:02;23.60;68.50
69546;SHT31;56766;52.260;20.746;2023-08-01T15:26:29;23.58;68.45